sensor_id;sensor_type;location;lat;lon;timestamp;P1;durP1;ratioP1;P2;durP2;ratioP2
53646;SDS011;39550;52.230;5.194;2023-02-02T00:00:14;14.20;;;6.53;;
53646;SDS011;39550;52.230;5.194;2023-02-02T00:02:40;15.90;;;6.38;;
53646;SDS011;39550;52.230;5.194;2023-02-02T00:05:05;17.45;;;6.88;;
53646;SDS011;39550;52.230;5.194;2023-02-02T00:07:33;16.58;;;7.30;;
53646;SDS011;39550;52.230;5.194;2023-02-02T00:10:03;20.02;;;7.10;;
53646;SDS011;39550;52.230;5.194;2023-02-02T00:12:29;19.58;;;6.78;;
53646;SDS011;39550;52.230;5.194;2023-02-02T00:14:55;16.33;;;7.95;;
53646;SDS011;39550;52.230;5.194;2023-02-02T00:17:29;14.32;;;7.05;;
53646;SDS011;39550;52.230;5.194;2023-02-02T00:19:57;17.52;;;7.30;;
53646;SDS011;39550;52.230;5.194;2023-02-02T00:22:23;15.15;;;7.60;;
53646;SDS011;39550;52.230;5.194;2023-02-02T00:24:51;19.80;;;7.47;;
53646;SDS011;39550;52.230;5.194;2023-02-02T00:27:17;13.38;;;7.25;;
53646;SDS011;39550;52.230;5.194;2023-02-02T00:29:43;19.63;;;8.05;;
53646;SDS011;39550;52.230;5.194;2023-02-02T00:32:11;19.77;;;7.38;;
53646;SDS011;39550;52.230;5.194;2023-02-02T00:34:37;17.27;;;7.18;;
53646;SDS011;39550;52.230;5.194;2023-02-02T00:37:04;14.40;;;6.75;;
53646;SDS011;39550;52.230;5.194;2023-02-02T00:39:30;16.35;;;6.65;;
53646;SDS011;39550;52.230;5.194;2023-02-02T00:41:56;16.48;;;6.15;;
53646;SDS011;39550;52.230;5.194;2023-02-02T00:44:25;14.65;;;6.25;;
53646;SDS011;39550;52.230;5.194;2023-02-02T00:47:09;13.82;;;5.82;;
53646;SDS011;39550;52.230;5.194;2023-02-02T00:49:34;17.60;;;7.25;;
53646;SDS011;39550;52.230;5.194;2023-02-02T00:52:00;11.15;;;5.55;;
53646;SDS011;39550;52.230;5.194;2023-02-02T00:54:26;15.38;;;6.65;;
53646;SDS011;39550;52.230;5.194;2023-02-02T00:56:52;11.52;;;5.72;;
53646;SDS011;39550;52.230;5.194;2023-02-02T00:59:17;10.07;;;5.25;;
53646;SDS011;39550;52.230;5.194;2023-02-02T01:01:43;14.77;;;6.13;;
53646;SDS011;39550;52.230;5.194;2023-02-02T01:04:08;11.68;;;5.60;;
53646;SDS011;39550;52.230;5.194;2023-02-02T01:06:34;13.63;;;5.40;;
53646;SDS011;39550;52.230;5.194;2023-02-02T01:09:00;13.10;;;5.65;;
53646;SDS011;39550;52.230;5.194;2023-02-02T01:11:25;13.68;;;5.78;;
53646;SDS011;39550;52.230;5.194;2023-02-02T01:13:51;14.73;;;5.97;;
53646;SDS011;39550;52.230;5.194;2023-02-02T01:16:20;20.55;;;5.28;;
53646;SDS011;39550;52.230;5.194;2023-02-02T01:18:46;17.73;;;5.65;;
53646;SDS011;39550;52.230;5.194;2023-02-02T01:21:12;13.18;;;5.40;;
53646;SDS011;39550;52.230;5.194;2023-02-02T01:23:38;13.80;;;4.85;;
53646;SDS011;39550;52.230;5.194;2023-02-02T01:26:05;9.68;;;4.70;;
53646;SDS011;39550;52.230;5.194;2023-02-02T01:28:36;9.23;;;4.63;;
53646;SDS011;39550;52.230;5.194;2023-02-02T01:31:10;10.85;;;5.05;;
53646;SDS011;39550;52.230;5.194;2023-02-02T01:33:38;11.55;;;5.20;;
53646;SDS011;39550;52.230;5.194;2023-02-02T01:36:05;10.80;;;5.20;;
53646;SDS011;39550;52.230;5.194;2023-02-02T01:38:35;8.65;;;4.75;;
53646;SDS011;39550;52.230;5.194;2023-02-02T01:41:07;10.52;;;4.00;;
53646;SDS011;39550;52.230;5.194;2023-02-02T01:46:11;10.55;;;4.97;;
53646;SDS011;39550;52.230;5.194;2023-02-02T01:48:37;9.65;;;4.45;;
53646;SDS011;39550;52.230;5.194;2023-02-02T01:51:05;9.02;;;4.15;;
53646;SDS011;39550;52.230;5.194;2023-02-02T01:53:33;12.63;;;5.30;;
53646;SDS011;39550;52.230;5.194;2023-02-02T01:56:00;13.18;;;4.07;;
53646;SDS011;39550;52.230;5.194;2023-02-02T01:58:36;6.97;;;3.58;;
53646;SDS011;39550;52.230;5.194;2023-02-02T02:01:05;9.00;;;4.38;;
53646;SDS011;39550;52.230;5.194;2023-02-02T02:03:32;9.70;;;4.35;;
53646;SDS011;39550;52.230;5.194;2023-02-02T02:06:01;8.98;;;4.28;;
53646;SDS011;39550;52.230;5.194;2023-02-02T02:08:38;8.80;;;3.80;;
53646;SDS011;39550;52.230;5.194;2023-02-02T02:11:11;8.02;;;3.90;;
53646;SDS011;39550;52.230;5.194;2023-02-02T02:13:39;10.65;;;4.32;;
53646;SDS011;39550;52.230;5.194;2023-02-02T02:25:07;6.35;;;3.58;;
53646;SDS011;39550;52.230;5.194;2023-02-02T02:33:45;6.90;;;3.92;;
53646;SDS011;39550;52.230;5.194;2023-02-02T02:39:30;8.35;;;3.58;;
53646;SDS011;39550;52.230;5.194;2023-02-02T02:42:02;8.60;;;3.67;;
53646;SDS011;39550;52.230;5.194;2023-02-02T02:44:33;11.00;;;3.90;;
53646;SDS011;39550;52.230;5.194;2023-02-02T02:47:06;7.47;;;3.90;;
53646;SDS011;39550;52.230;5.194;2023-02-02T02:49:40;7.90;;;3.22;;
53646;SDS011;39550;52.230;5.194;2023-02-02T02:52:09;9.35;;;3.97;;
53646;SDS011;39550;52.230;5.194;2023-02-02T02:54:40;8.05;;;3.85;;
53646;SDS011;39550;52.230;5.194;2023-02-02T03:08:34;10.85;;;4.25;;
53646;SDS011;39550;52.230;5.194;2023-02-02T03:11:05;9.10;;;3.83;;
53646;SDS011;39550;52.230;5.194;2023-02-02T03:13:36;8.57;;;4.35;;
53646;SDS011;39550;52.230;5.194;2023-02-02T03:16:02;11.77;;;4.72;;
53646;SDS011;39550;52.230;5.194;2023-02-02T03:18:31;12.18;;;4.32;;
53646;SDS011;39550;52.230;5.194;2023-02-02T03:21:01;10.45;;;4.30;;
53646;SDS011;39550;52.230;5.194;2023-02-02T03:23:27;11.30;;;4.55;;
53646;SDS011;39550;52.230;5.194;2023-02-02T03:25:53;13.50;;;4.78;;
53646;SDS011;39550;52.230;5.194;2023-02-02T03:28:21;14.32;;;4.97;;
53646;SDS011;39550;52.230;5.194;2023-02-02T03:30:56;14.95;;;5.10;;
53646;SDS011;39550;52.230;5.194;2023-02-02T03:33:26;13.65;;;4.82;;
53646;SDS011;39550;52.230;5.194;2023-02-02T03:35:52;12.25;;;4.10;;
53646;SDS011;39550;52.230;5.194;2023-02-02T03:38:18;11.25;;;4.47;;
53646;SDS011;39550;52.230;5.194;2023-02-02T03:40:43;11.40;;;4.55;;
53646;SDS011;39550;52.230;5.194;2023-02-02T03:43:09;13.57;;;5.18;;
53646;SDS011;39550;52.230;5.194;2023-02-02T03:45:34;13.40;;;4.47;;
53646;SDS011;39550;52.230;5.194;2023-02-02T03:48:04;8.95;;;4.30;;
53646;SDS011;39550;52.230;5.194;2023-02-02T03:50:30;13.10;;;5.50;;
53646;SDS011;39550;52.230;5.194;2023-02-02T03:52:56;16.35;;;5.10;;
53646;SDS011;39550;52.230;5.194;2023-02-02T03:55:22;16.13;;;4.82;;
53646;SDS011;39550;52.230;5.194;2023-02-02T03:57:47;13.82;;;4.70;;
53646;SDS011;39550;52.230;5.194;2023-02-02T04:00:13;12.23;;;5.45;;
53646;SDS011;39550;52.230;5.194;2023-02-02T04:02:41;13.35;;;4.78;;
53646;SDS011;39550;52.230;5.194;2023-02-02T04:05:07;10.68;;;4.43;;
53646;SDS011;39550;52.230;5.194;2023-02-02T04:07:32;17.02;;;5.18;;
53646;SDS011;39550;52.230;5.194;2023-02-02T04:09:58;9.95;;;4.43;;
53646;SDS011;39550;52.230;5.194;2023-02-02T04:12:23;12.13;;;4.80;;
53646;SDS011;39550;52.230;5.194;2023-02-02T04:14:49;11.80;;;4.40;;
53646;SDS011;39550;52.230;5.194;2023-02-02T04:17:14;16.38;;;5.50;;
53646;SDS011;39550;52.230;5.194;2023-02-02T04:19:43;13.02;;;5.10;;
53646;SDS011;39550;52.230;5.194;2023-02-02T04:24:35;12.40;;;4.88;;
53646;SDS011;39550;52.230;5.194;2023-02-02T04:27:01;13.23;;;4.75;;
53646;SDS011;39550;52.230;5.194;2023-02-02T04:29:29;17.23;;;5.25;;
53646;SDS011;39550;52.230;5.194;2023-02-02T04:31:58;12.88;;;5.15;;
53646;SDS011;39550;52.230;5.194;2023-02-02T04:34:33;14.02;;;4.72;;
53646;SDS011;39550;52.230;5.194;2023-02-02T04:37:10;16.05;;;5.57;;
53646;SDS011;39550;52.230;5.194;2023-02-02T04:39:38;12.10;;;5.73;;
53646;SDS011;39550;52.230;5.194;2023-02-02T04:42:03;13.82;;;5.15;;
53646;SDS011;39550;52.230;5.194;2023-02-02T04:44:29;11.25;;;4.68;;
53646;SDS011;39550;52.230;5.194;2023-02-02T04:46:55;12.00;;;4.95;;
53646;SDS011;39550;52.230;5.194;2023-02-02T04:49:20;12.50;;;4.70;;
53646;SDS011;39550;52.230;5.194;2023-02-02T04:51:51;14.43;;;5.55;;
53646;SDS011;39550;52.230;5.194;2023-02-02T04:54:17;13.52;;;4.82;;
53646;SDS011;39550;52.230;5.194;2023-02-02T04:56:45;14.32;;;4.97;;
53646;SDS011;39550;52.230;5.194;2023-02-02T04:59:11;11.65;;;5.30;;
53646;SDS011;39550;52.230;5.194;2023-02-02T05:01:36;13.43;;;5.15;;
53646;SDS011;39550;52.230;5.194;2023-02-02T05:04:01;15.50;;;4.78;;
53646;SDS011;39550;52.230;5.194;2023-02-02T05:06:27;11.00;;;4.57;;
53646;SDS011;39550;52.230;5.194;2023-02-02T05:08:52;10.95;;;5.18;;
53646;SDS011;39550;52.230;5.194;2023-02-02T05:11:18;17.27;;;5.55;;
53646;SDS011;39550;52.230;5.194;2023-02-02T05:13:54;14.98;;;5.55;;
53646;SDS011;39550;52.230;5.194;2023-02-02T05:16:20;12.43;;;4.65;;
53646;SDS011;39550;52.230;5.194;2023-02-02T05:18:51;12.43;;;4.72;;
53646;SDS011;39550;52.230;5.194;2023-02-02T05:21:18;16.52;;;5.28;;
53646;SDS011;39550;52.230;5.194;2023-02-02T05:23:44;16.40;;;5.70;;
53646;SDS011;39550;52.230;5.194;2023-02-02T05:26:13;16.17;;;5.20;;
53646;SDS011;39550;52.230;5.194;2023-02-02T05:28:41;15.82;;;5.40;;
53646;SDS011;39550;52.230;5.194;2023-02-02T05:31:07;14.68;;;4.90;;
53646;SDS011;39550;52.230;5.194;2023-02-02T05:33:33;15.90;;;5.30;;
53646;SDS011;39550;52.230;5.194;2023-02-02T05:35:58;16.35;;;5.15;;
53646;SDS011;39550;52.230;5.194;2023-02-02T05:38:23;13.18;;;4.82;;
53646;SDS011;39550;52.230;5.194;2023-02-02T05:40:49;11.98;;;5.30;;
53646;SDS011;39550;52.230;5.194;2023-02-02T05:43:14;11.88;;;4.88;;
53646;SDS011;39550;52.230;5.194;2023-02-02T05:45:39;17.05;;;5.68;;
53646;SDS011;39550;52.230;5.194;2023-02-02T05:48:05;11.90;;;4.60;;
53646;SDS011;39550;52.230;5.194;2023-02-02T05:50:30;14.43;;;5.80;;
53646;SDS011;39550;52.230;5.194;2023-02-02T05:52:56;11.35;;;4.80;;
53646;SDS011;39550;52.230;5.194;2023-02-02T05:55:22;15.30;;;5.35;;
53646;SDS011;39550;52.230;5.194;2023-02-02T05:57:47;13.07;;;5.07;;
53646;SDS011;39550;52.230;5.194;2023-02-02T06:00:13;15.27;;;4.88;;
53646;SDS011;39550;52.230;5.194;2023-02-02T06:02:38;11.00;;;4.45;;
53646;SDS011;39550;52.230;5.194;2023-02-02T06:05:04;12.75;;;4.68;;
53646;SDS011;39550;52.230;5.194;2023-02-02T06:07:29;12.38;;;5.13;;
53646;SDS011;39550;52.230;5.194;2023-02-02T06:09:55;11.15;;;5.00;;
53646;SDS011;39550;52.230;5.194;2023-02-02T06:12:20;14.35;;;4.80;;
53646;SDS011;39550;52.230;5.194;2023-02-02T06:14:45;11.43;;;4.57;;
53646;SDS011;39550;52.230;5.194;2023-02-02T06:17:11;12.30;;;4.80;;
53646;SDS011;39550;52.230;5.194;2023-02-02T06:19:36;14.75;;;5.03;;
53646;SDS011;39550;52.230;5.194;2023-02-02T06:22:01;16.85;;;5.00;;
53646;SDS011;39550;52.230;5.194;2023-02-02T06:24:27;15.80;;;4.78;;
53646;SDS011;39550;52.230;5.194;2023-02-02T06:26:52;11.90;;;4.95;;
53646;SDS011;39550;52.230;5.194;2023-02-02T06:29:17;13.32;;;4.45;;
53646;SDS011;39550;52.230;5.194;2023-02-02T06:31:43;10.48;;;4.60;;
53646;SDS011;39550;52.230;5.194;2023-02-02T06:34:08;17.92;;;5.32;;
53646;SDS011;39550;52.230;5.194;2023-02-02T06:36:37;14.43;;;4.60;;
53646;SDS011;39550;52.230;5.194;2023-02-02T06:39:09;11.90;;;4.88;;
53646;SDS011;39550;52.230;5.194;2023-02-02T06:41:34;15.55;;;5.05;;
53646;SDS011;39550;52.230;5.194;2023-02-02T06:44:00;15.15;;;5.30;;
53646;SDS011;39550;52.230;5.194;2023-02-02T06:46:25;11.57;;;5.25;;
53646;SDS011;39550;52.230;5.194;2023-02-02T06:48:51;11.38;;;4.70;;
53646;SDS011;39550;52.230;5.194;2023-02-02T06:51:16;12.73;;;5.90;;
53646;SDS011;39550;52.230;5.194;2023-02-02T06:53:42;10.75;;;4.30;;
53646;SDS011;39550;52.230;5.194;2023-02-02T06:56:10;11.50;;;5.18;;
53646;SDS011;39550;52.230;5.194;2023-02-02T06:58:38;14.75;;;5.20;;
53646;SDS011;39550;52.230;5.194;2023-02-02T07:01:04;11.38;;;4.13;;
53646;SDS011;39550;52.230;5.194;2023-02-02T07:03:31;11.85;;;4.50;;
53646;SDS011;39550;52.230;5.194;2023-02-02T07:05:58;9.40;;;4.30;;
53646;SDS011;39550;52.230;5.194;2023-02-02T07:08:33;12.25;;;5.05;;
53646;SDS011;39550;52.230;5.194;2023-02-02T07:10:59;12.80;;;4.53;;
53646;SDS011;39550;52.230;5.194;2023-02-02T07:13:24;11.35;;;4.88;;
53646;SDS011;39550;52.230;5.194;2023-02-02T07:15:49;11.52;;;5.07;;
53646;SDS011;39550;52.230;5.194;2023-02-02T07:18:14;14.25;;;4.90;;
53646;SDS011;39550;52.230;5.194;2023-02-02T07:20:40;13.23;;;4.93;;
53646;SDS011;39550;52.230;5.194;2023-02-02T07:23:05;12.43;;;5.40;;
53646;SDS011;39550;52.230;5.194;2023-02-02T07:25:31;11.40;;;4.70;;
53646;SDS011;39550;52.230;5.194;2023-02-02T07:27:56;21.30;;;5.13;;
53646;SDS011;39550;52.230;5.194;2023-02-02T07:30:21;9.23;;;4.60;;
53646;SDS011;39550;52.230;5.194;2023-02-02T07:32:47;11.55;;;4.45;;
53646;SDS011;39550;52.230;5.194;2023-02-02T07:35:13;10.43;;;4.32;;
53646;SDS011;39550;52.230;5.194;2023-02-02T07:37:39;12.10;;;5.10;;
53646;SDS011;39550;52.230;5.194;2023-02-02T07:40:05;14.90;;;4.90;;
53646;SDS011;39550;52.230;5.194;2023-02-02T07:42:31;9.32;;;4.85;;
53646;SDS011;39550;52.230;5.194;2023-02-02T07:44:57;9.27;;;4.75;;
53646;SDS011;39550;52.230;5.194;2023-02-02T07:47:22;17.48;;;5.18;;
53646;SDS011;39550;52.230;5.194;2023-02-02T07:49:47;12.52;;;5.68;;
53646;SDS011;39550;52.230;5.194;2023-02-02T07:52:12;16.10;;;5.63;;
53646;SDS011;39550;52.230;5.194;2023-02-02T07:54:39;15.57;;;5.07;;
53646;SDS011;39550;52.230;5.194;2023-02-02T07:57:04;14.55;;;5.68;;
53646;SDS011;39550;52.230;5.194;2023-02-02T07:59:30;14.43;;;5.38;;
53646;SDS011;39550;52.230;5.194;2023-02-02T08:01:55;14.75;;;5.88;;
53646;SDS011;39550;52.230;5.194;2023-02-02T08:04:20;14.25;;;5.45;;
53646;SDS011;39550;52.230;5.194;2023-02-02T08:06:46;19.27;;;5.40;;
53646;SDS011;39550;52.230;5.194;2023-02-02T08:09:12;15.60;;;4.95;;
53646;SDS011;39550;52.230;5.194;2023-02-02T08:11:37;12.77;;;5.50;;
53646;SDS011;39550;52.230;5.194;2023-02-02T08:14:03;18.85;;;5.65;;
53646;SDS011;39550;52.230;5.194;2023-02-02T08:16:30;15.98;;;5.40;;
53646;SDS011;39550;52.230;5.194;2023-02-02T08:18:57;12.60;;;5.15;;
53646;SDS011;39550;52.230;5.194;2023-02-02T08:21:23;14.95;;;5.03;;
53646;SDS011;39550;52.230;5.194;2023-02-02T08:23:48;13.23;;;5.20;;
53646;SDS011;39550;52.230;5.194;2023-02-02T08:28:47;13.68;;;5.03;;
53646;SDS011;39550;52.230;5.194;2023-02-02T08:31:20;15.52;;;5.15;;
53646;SDS011;39550;52.230;5.194;2023-02-02T08:33:53;12.55;;;5.28;;
53646;SDS011;39550;52.230;5.194;2023-02-02T08:36:19;11.63;;;5.10;;
53646;SDS011;39550;52.230;5.194;2023-02-02T08:38:46;16.05;;;5.25;;
53646;SDS011;39550;52.230;5.194;2023-02-02T08:41:13;12.55;;;5.00;;
53646;SDS011;39550;52.230;5.194;2023-02-02T08:43:40;11.50;;;5.13;;
53646;SDS011;39550;52.230;5.194;2023-02-02T08:46:05;13.88;;;4.70;;
53646;SDS011;39550;52.230;5.194;2023-02-02T08:48:32;11.93;;;4.30;;
53646;SDS011;39550;52.230;5.194;2023-02-02T08:50:59;13.73;;;4.88;;
53646;SDS011;39550;52.230;5.194;2023-02-02T08:53:25;11.75;;;4.75;;
53646;SDS011;39550;52.230;5.194;2023-02-02T08:56:02;16.02;;;4.93;;
53646;SDS011;39550;52.230;5.194;2023-02-02T08:58:34;13.45;;;4.80;;
53646;SDS011;39550;52.230;5.194;2023-02-02T09:01:09;18.40;;;5.13;;
53646;SDS011;39550;52.230;5.194;2023-02-02T09:03:37;11.07;;;4.30;;
53646;SDS011;39550;52.230;5.194;2023-02-02T09:06:06;13.35;;;4.30;;
53646;SDS011;39550;52.230;5.194;2023-02-02T09:08:37;12.63;;;4.60;;
53646;SDS011;39550;52.230;5.194;2023-02-02T09:11:06;10.60;;;4.60;;
53646;SDS011;39550;52.230;5.194;2023-02-02T09:13:38;9.68;;;4.28;;
53646;SDS011;39550;52.230;5.194;2023-02-02T09:16:05;11.52;;;4.85;;
53646;SDS011;39550;52.230;5.194;2023-02-02T09:18:32;12.88;;;4.45;;
53646;SDS011;39550;52.230;5.194;2023-02-02T09:20:58;13.48;;;4.68;;
53646;SDS011;39550;52.230;5.194;2023-02-02T09:23:32;13.38;;;5.00;;
53646;SDS011;39550;52.230;5.194;2023-02-02T09:28:57;8.95;;;4.07;;
53646;SDS011;39550;52.230;5.194;2023-02-02T09:31:26;10.27;;;5.18;;
53646;SDS011;39550;52.230;5.194;2023-02-02T09:33:51;14.52;;;4.85;;
53646;SDS011;39550;52.230;5.194;2023-02-02T09:36:18;12.13;;;4.68;;
53646;SDS011;39550;52.230;5.194;2023-02-02T09:38:48;10.90;;;5.13;;
53646;SDS011;39550;52.230;5.194;2023-02-02T09:41:34;14.55;;;4.35;;
53646;SDS011;39550;52.230;5.194;2023-02-02T09:47:19;10.95;;;4.65;;
53646;SDS011;39550;52.230;5.194;2023-02-02T09:49:58;9.88;;;4.30;;
53646;SDS011;39550;52.230;5.194;2023-02-02T09:52:29;9.07;;;3.95;;
53646;SDS011;39550;52.230;5.194;2023-02-02T09:55:05;12.15;;;4.55;;
53646;SDS011;39550;52.230;5.194;2023-02-02T09:58:17;12.95;;;5.28;;
53646;SDS011;39550;52.230;5.194;2023-02-02T10:00:28;12.10;;;5.22;;
53646;SDS011;39550;52.230;5.194;2023-02-02T10:03:01;11.65;;;4.63;;
53646;SDS011;39550;52.230;5.194;2023-02-02T10:08:37;14.27;;;5.72;;
53646;SDS011;39550;52.230;5.194;2023-02-02T10:11:15;13.65;;;4.88;;
53646;SDS011;39550;52.230;5.194;2023-02-02T10:13:55;11.20;;;4.40;;
53646;SDS011;39550;52.230;5.194;2023-02-02T10:16:26;10.68;;;4.40;;
53646;SDS011;39550;52.230;5.194;2023-02-02T10:18:58;11.57;;;5.10;;
53646;SDS011;39550;52.230;5.194;2023-02-02T10:24:17;9.13;;;4.60;;
53646;SDS011;39550;52.230;5.194;2023-02-02T10:26:45;11.32;;;5.03;;
53646;SDS011;39550;52.230;5.194;2023-02-02T10:29:17;13.82;;;4.88;;
53646;SDS011;39550;52.230;5.194;2023-02-02T10:34:31;14.50;;;4.13;;
53646;SDS011;39550;52.230;5.194;2023-02-02T10:45:39;12.32;;;5.22;;
53646;SDS011;39550;52.230;5.194;2023-02-02T10:48:25;12.90;;;4.73;;
53646;SDS011;39550;52.230;5.194;2023-02-02T10:50:56;12.90;;;5.00;;
53646;SDS011;39550;52.230;5.194;2023-02-02T10:53:27;12.27;;;4.82;;
53646;SDS011;39550;52.230;5.194;2023-02-02T10:55:57;12.35;;;5.30;;
53646;SDS011;39550;52.230;5.194;2023-02-02T11:03:42;8.95;;;4.05;;
53646;SDS011;39550;52.230;5.194;2023-02-02T11:06:11;13.18;;;4.63;;
53646;SDS011;39550;52.230;5.194;2023-02-02T11:08:56;15.82;;;4.97;;
53646;SDS011;39550;52.230;5.194;2023-02-02T11:16:32;13.48;;;4.95;;
53646;SDS011;39550;52.230;5.194;2023-02-02T11:19:20;12.15;;;4.75;;
53646;SDS011;39550;52.230;5.194;2023-02-02T11:21:52;14.30;;;4.50;;
53646;SDS011;39550;52.230;5.194;2023-02-02T11:27:11;11.55;;;4.40;;
53646;SDS011;39550;52.230;5.194;2023-02-02T11:34:44;10.93;;;4.88;;
53646;SDS011;39550;52.230;5.194;2023-02-02T11:39:43;12.68;;;4.93;;
53646;SDS011;39550;52.230;5.194;2023-02-02T11:42:42;10.35;;;4.75;;
53646;SDS011;39550;52.230;5.194;2023-02-02T11:45:00;10.70;;;4.95;;
53646;SDS011;39550;52.230;5.194;2023-02-02T11:47:29;11.95;;;4.80;;
53646;SDS011;39550;52.230;5.194;2023-02-02T11:49:57;13.98;;;4.68;;
53646;SDS011;39550;52.230;5.194;2023-02-02T11:52:26;13.88;;;4.03;;
53646;SDS011;39550;52.230;5.194;2023-02-02T11:54:55;11.35;;;4.45;;
53646;SDS011;39550;52.230;5.194;2023-02-02T11:57:23;14.25;;;4.85;;
53646;SDS011;39550;52.230;5.194;2023-02-02T11:59:50;10.02;;;4.22;;
53646;SDS011;39550;52.230;5.194;2023-02-02T12:02:31;14.02;;;4.63;;
53646;SDS011;39550;52.230;5.194;2023-02-02T12:07:34;10.38;;;4.13;;
53646;SDS011;39550;52.230;5.194;2023-02-02T12:10:06;9.90;;;4.72;;
53646;SDS011;39550;52.230;5.194;2023-02-02T12:13:03;9.55;;;4.25;;
53646;SDS011;39550;52.230;5.194;2023-02-02T12:15:57;9.88;;;4.53;;
53646;SDS011;39550;52.230;5.194;2023-02-02T12:24:29;9.50;;;3.95;;
53646;SDS011;39550;52.230;5.194;2023-02-02T12:27:11;14.82;;;4.85;;
53646;SDS011;39550;52.230;5.194;2023-02-02T12:29:46;15.93;;;5.15;;
53646;SDS011;39550;52.230;5.194;2023-02-02T12:35:04;7.90;;;4.20;;
53646;SDS011;39550;52.230;5.194;2023-02-02T12:40:02;13.32;;;4.68;;
53646;SDS011;39550;52.230;5.194;2023-02-02T12:45:19;14.27;;;4.70;;
53646;SDS011;39550;52.230;5.194;2023-02-02T12:48:03;11.45;;;4.55;;
53646;SDS011;39550;52.230;5.194;2023-02-02T12:53:16;11.07;;;4.60;;
53646;SDS011;39550;52.230;5.194;2023-02-02T13:08:07;9.05;;;3.92;;
53646;SDS011;39550;52.230;5.194;2023-02-02T13:10:40;9.70;;;4.15;;
53646;SDS011;39550;52.230;5.194;2023-02-02T13:13:16;11.30;;;4.47;;
53646;SDS011;39550;52.230;5.194;2023-02-02T13:15:48;7.35;;;3.58;;
53646;SDS011;39550;52.230;5.194;2023-02-02T13:18:23;14.20;;;4.95;;
53646;SDS011;39550;52.230;5.194;2023-02-02T13:21:03;11.02;;;4.05;;
53646;SDS011;39550;52.230;5.194;2023-02-02T13:23:38;11.63;;;4.15;;
53646;SDS011;39550;52.230;5.194;2023-02-02T13:31:36;11.77;;;3.97;;
53646;SDS011;39550;52.230;5.194;2023-02-02T13:34:15;9.20;;;3.95;;
53646;SDS011;39550;52.230;5.194;2023-02-02T13:36:42;12.30;;;4.47;;
53646;SDS011;39550;52.230;5.194;2023-02-02T13:39:19;11.00;;;3.72;;
53646;SDS011;39550;52.230;5.194;2023-02-02T13:44:36;8.73;;;3.80;;
53646;SDS011;39550;52.230;5.194;2023-02-02T13:47:08;6.55;;;3.45;;
53646;SDS011;39550;52.230;5.194;2023-02-02T13:49:41;9.50;;;3.90;;
53646;SDS011;39550;52.230;5.194;2023-02-02T14:00:18;9.00;;;3.58;;
53646;SDS011;39550;52.230;5.194;2023-02-02T14:05:20;9.88;;;3.70;;
53646;SDS011;39550;52.230;5.194;2023-02-02T14:16:05;7.95;;;3.20;;
53646;SDS011;39550;52.230;5.194;2023-02-02T14:18:51;8.27;;;3.33;;
53646;SDS011;39550;52.230;5.194;2023-02-02T14:23:55;7.88;;;3.45;;
53646;SDS011;39550;52.230;5.194;2023-02-02T14:26:48;6.53;;;2.97;;
53646;SDS011;39550;52.230;5.194;2023-02-02T14:34:43;5.97;;;3.35;;
53646;SDS011;39550;52.230;5.194;2023-02-02T14:45:47;6.93;;;3.20;;
53646;SDS011;39550;52.230;5.194;2023-02-02T14:48:34;10.70;;;3.50;;
53646;SDS011;39550;52.230;5.194;2023-02-02T14:51:00;6.95;;;3.03;;
53646;SDS011;39550;52.230;5.194;2023-02-02T14:58:30;7.75;;;3.35;;
53646;SDS011;39550;52.230;5.194;2023-02-02T15:06:34;6.93;;;3.67;;
53646;SDS011;39550;52.230;5.194;2023-02-02T15:17:19;9.80;;;4.32;;
53646;SDS011;39550;52.230;5.194;2023-02-02T15:19:46;6.43;;;3.20;;
53646;SDS011;39550;52.230;5.194;2023-02-02T15:25:11;10.15;;;3.80;;
53646;SDS011;39550;52.230;5.194;2023-02-02T15:27:43;8.85;;;4.30;;
53646;SDS011;39550;52.230;5.194;2023-02-02T15:30:15;9.25;;;4.00;;
53646;SDS011;39550;52.230;5.194;2023-02-02T15:32:42;10.10;;;4.25;;
53646;SDS011;39550;52.230;5.194;2023-02-02T15:35:16;7.10;;;4.22;;
53646;SDS011;39550;52.230;5.194;2023-02-02T15:37:45;9.07;;;4.43;;
53646;SDS011;39550;52.230;5.194;2023-02-02T15:40:19;10.82;;;4.55;;
53646;SDS011;39550;52.230;5.194;2023-02-02T15:42:48;10.27;;;4.22;;
53646;SDS011;39550;52.230;5.194;2023-02-02T15:47:58;7.45;;;3.85;;
53646;SDS011;39550;52.230;5.194;2023-02-02T15:50:24;8.18;;;4.30;;
53646;SDS011;39550;52.230;5.194;2023-02-02T15:52:51;8.13;;;4.03;;
53646;SDS011;39550;52.230;5.194;2023-02-02T15:55:19;10.23;;;4.65;;
53646;SDS011;39550;52.230;5.194;2023-02-02T15:57:46;13.05;;;4.95;;
53646;SDS011;39550;52.230;5.194;2023-02-02T16:00:23;10.40;;;4.40;;
53646;SDS011;39550;52.230;5.194;2023-02-02T16:08:00;12.35;;;4.50;;
53646;SDS011;39550;52.230;5.194;2023-02-02T16:10:27;8.10;;;4.45;;
53646;SDS011;39550;52.230;5.194;2023-02-02T16:12:52;11.63;;;5.00;;
53646;SDS011;39550;52.230;5.194;2023-02-02T16:15:24;11.82;;;5.03;;
53646;SDS011;39550;52.230;5.194;2023-02-02T16:17:57;11.93;;;5.20;;
53646;SDS011;39550;52.230;5.194;2023-02-02T16:20:24;10.27;;;5.18;;
53646;SDS011;39550;52.230;5.194;2023-02-02T16:22:50;31.35;;;7.32;;
53646;SDS011;39550;52.230;5.194;2023-02-02T16:25:18;39.17;;;7.47;;
53646;SDS011;39550;52.230;5.194;2023-02-02T16:27:46;28.83;;;6.65;;
53646;SDS011;39550;52.230;5.194;2023-02-02T16:30:22;32.10;;;7.53;;
53646;SDS011;39550;52.230;5.194;2023-02-02T16:32:51;44.00;;;8.02;;
53646;SDS011;39550;52.230;5.194;2023-02-02T16:40:46;54.97;;;9.88;;
53646;SDS011;39550;52.230;5.194;2023-02-02T16:43:19;39.15;;;7.80;;
53646;SDS011;39550;52.230;5.194;2023-02-02T16:46:01;34.00;;;8.23;;
53646;SDS011;39550;52.230;5.194;2023-02-02T16:53:31;25.83;;;7.85;;
53646;SDS011;39550;52.230;5.194;2023-02-02T16:55:59;26.70;;;6.85;;
53646;SDS011;39550;52.230;5.194;2023-02-02T16:58:24;26.25;;;7.00;;
53646;SDS011;39550;52.230;5.194;2023-02-02T17:01:04;22.40;;;6.88;;
53646;SDS011;39550;52.230;5.194;2023-02-02T17:03:39;18.83;;;6.07;;
53646;SDS011;39550;52.230;5.194;2023-02-02T17:06:24;16.10;;;6.40;;
53646;SDS011;39550;52.230;5.194;2023-02-02T17:08:54;23.52;;;6.30;;
53646;SDS011;39550;52.230;5.194;2023-02-02T17:11:25;25.05;;;6.97;;
53646;SDS011;39550;52.230;5.194;2023-02-02T17:13:52;16.60;;;6.75;;
53646;SDS011;39550;52.230;5.194;2023-02-02T17:16:20;16.98;;;6.07;;
53646;SDS011;39550;52.230;5.194;2023-02-02T17:18:47;22.70;;;6.85;;
53646;SDS011;39550;52.230;5.194;2023-02-02T17:21:16;19.60;;;5.97;;
53646;SDS011;39550;52.230;5.194;2023-02-02T17:23:47;18.40;;;6.47;;
53646;SDS011;39550;52.230;5.194;2023-02-02T17:26:15;18.77;;;5.93;;
53646;SDS011;39550;52.230;5.194;2023-02-02T17:28:42;15.13;;;5.47;;
53646;SDS011;39550;52.230;5.194;2023-02-02T17:31:08;13.02;;;5.80;;
53646;SDS011;39550;52.230;5.194;2023-02-02T17:33:37;18.23;;;5.70;;
53646;SDS011;39550;52.230;5.194;2023-02-02T17:36:03;14.45;;;6.07;;
53646;SDS011;39550;52.230;5.194;2023-02-02T17:38:29;20.63;;;6.65;;
53646;SDS011;39550;52.230;5.194;2023-02-02T17:41:00;14.00;;;5.43;;
53646;SDS011;39550;52.230;5.194;2023-02-02T17:43:26;11.65;;;5.32;;
53646;SDS011;39550;52.230;5.194;2023-02-02T17:45:52;12.10;;;5.78;;
53646;SDS011;39550;52.230;5.194;2023-02-02T17:48:17;17.20;;;5.93;;
53646;SDS011;39550;52.230;5.194;2023-02-02T17:50:44;14.75;;;5.90;;
53646;SDS011;39550;52.230;5.194;2023-02-02T17:53:12;16.40;;;6.03;;
53646;SDS011;39550;52.230;5.194;2023-02-02T17:55:41;12.38;;;5.40;;
53646;SDS011;39550;52.230;5.194;2023-02-02T17:58:08;15.40;;;5.82;;
53646;SDS011;39550;52.230;5.194;2023-02-02T18:00:40;12.73;;;6.32;;
53646;SDS011;39550;52.230;5.194;2023-02-02T18:03:09;11.80;;;5.22;;